Orchard, TX (77464)

1:07 AM CDT on April 28, 2015 (GMT -0500)
Weston Lakes | | Change Station
CLOSE
Current Station
Personal Weather Station
Location: Fulshear, TX
Elevation: 108 ft
Nearby Weather Stations
Active Advisory: Flood Warning Active Notice: Public Information Statement

Elev 108 ft 29.65 °N, 95.93 °W | Updated 6 minutes ago

Clear
Clear
67.1 °F
Feels Like 67.1 °F
N
0.0
Wind Variable Wind from East

Today
High -- | Low -- °F
--% Chance of Precip.
Yesterday
High -- | Low -- °F
Precip. -- in
6:44 AM 7:58 PM
Waxing Gibbous, 71% visible
Pressure 29.80 in
Visibility 10.0 miles
Clouds Clear
Dew Point Not available.
Humidity Not available.
Rainfall 0.00 in
Snow Depth Not available.
UV 0 out of 12
Pollen .50 out of 12
Air Quality Not available.
Flu Activity Local Activity
METAR KTME 280555Z AUTO 07005KT 10SM CLR 19/18 A2980 RMK AO2

More Conditions Fewer Conditions

Pressure 29.80 in
Visibility 10.0 miles
Clouds Clear
Dew Point Not available.
Humidity Not available.
Rainfall 0.00 in
Snow Depth Not available.
UV 0 out of 12
Pollen .50 out of 12
Air Quality Not available.
Flu Activity Local Activity
METAR KTME 280555Z AUTO 07005KT 10SM CLR 19/18 A2980 RMK AO2

More Conditions Fewer Conditions

10-Day Weather Forecast

Almanac

Astronomy

Apr. 28, 2015 Rise Set
Actual Time
Civil Twilight
Nautical Twilight
Astronomical Twilight
Moon
Length of Visible Light
Length of Day
Tomorrow will be .
, % of the Moon is Illuminated

Today's Extremes

State Highs State Lows

Community

WunderPhotos

Upload Photos

1,817,589 photos uploaded!

WunderBlogs® & News

Nearby

Air Quality

  Air Quality AQ Index Pollutant
Not available.

Snow Depth

Station Depth Elevation

Earthquake Activity

City Distance Mag. Time & Date
Minimum magnitude displayed is 2.5.

Coastal Water Temperatures

Place Temperature

Stations

Nearby Weather Stations

Station Location Temp. Windchill Dew Point Humidity Wind Precip. Elev Updated Type
                   
Flood Warning
Statement as of 11:02 PM CDT on April 27, 2015

The Flood Warning continues for
the San Bernard River near Boling
* until Tuesday evening... or until the warning is canceled.
* At 1046 PM Monday the stage was 19.4 feet
* minor flooding is occurring and minor flooding is forecast.
* Flood stage is 18.0 feet
* forecast... the river will continue to fall to below flood stage by tomorrow
morning.


Lat... Lon 2940 9592 2930 9584 2913 9566 2913 9577 2930 9595 2940 9605





                     flood observed forecast 6 PM
location stage stage day time Tue Wed Thu Fri

San Bernard River
Boling 18 19.4 Mon 11 PM 15.7 12.1 9.5 8.5